sensor_id;sensor_type;location;lat;lon;timestamp;pressure;altitude;pressure_sealevel;temperature;humidity
21821;BME280;11073;48.586;12.066;2023-02-20T00:01:45;97400.03;;;8.71;65.18
21821;BME280;11073;48.586;12.066;2023-02-20T00:04:34;97397.94;;;8.73;65.15
21821;BME280;11073;48.586;12.066;2023-02-20T00:07:25;97388.41;;;8.70;65.21
21821;BME280;11073;48.586;12.066;2023-02-20T00:10:14;97393.16;;;8.68;65.36
21821;BME280;11073;48.586;12.066;2023-02-20T00:13:04;97397.91;;;8.66;65.47
21821;BME280;11073;48.586;12.066;2023-02-20T00:15:54;97400.00;;;8.64;65.46
21821;BME280;11073;48.586;12.066;2023-02-20T00:18:44;97402.69;;;8.64;65.66
21821;BME280;11073;48.586;12.066;2023-02-20T00:21:33;97392.13;;;8.63;65.50
21821;BME280;11073;48.586;12.066;2023-02-20T00:24:23;97398.53;;;8.62;65.67
21821;BME280;11073;48.586;12.066;2023-02-20T00:27:13;97388.56;;;8.55;65.80
21821;BME280;11073;48.586;12.066;2023-02-20T00:30:02;97401.03;;;8.56;65.74
21821;BME280;11073;48.586;12.066;2023-02-20T00:32:53;97402.88;;;8.56;65.70
21821;BME280;11073;48.586;12.066;2023-02-20T00:35:42;97403.94;;;8.55;65.71
21821;BME280;11073;48.586;12.066;2023-02-20T00:38:31;97397.25;;;8.51;65.75
21821;BME280;11073;48.586;12.066;2023-02-20T00:41:22;97399.53;;;8.54;65.85
21821;BME280;11073;48.586;12.066;2023-02-20T00:44:12;97395.19;;;8.53;65.87
21821;BME280;11073;48.586;12.066;2023-02-20T00:47:01;97398.91;;;8.52;65.98
21821;BME280;11073;48.586;12.066;2023-02-20T00:49:52;97395.81;;;8.55;66.07
21821;BME280;11073;48.586;12.066;2023-02-20T00:52:42;97396.66;;;8.55;65.82
21821;BME280;11073;48.586;12.066;2023-02-20T00:55:31;97393.50;;;8.52;65.84
21821;BME280;11073;48.586;12.066;2023-02-20T00:58:22;97394.97;;;8.54;65.99
21821;BME280;11073;48.586;12.066;2023-02-20T01:01:12;97370.88;;;8.46;65.93
21821;BME280;11073;48.586;12.066;2023-02-20T01:04:01;97391.88;;;8.57;65.96
21821;BME280;11073;48.586;12.066;2023-02-20T01:06:50;97398.53;;;8.55;65.93
21821;BME280;11073;48.586;12.066;2023-02-20T01:09:41;97390.00;;;8.51;65.78
21821;BME280;11073;48.586;12.066;2023-02-20T01:12:34;97400.78;;;8.51;65.80
21821;BME280;11073;48.586;12.066;2023-02-20T01:15:25;97390.19;;;8.50;65.81
21821;BME280;11073;48.586;12.066;2023-02-20T01:18:16;97398.50;;;8.48;65.78
21821;BME280;11073;48.586;12.066;2023-02-20T01:21:05;97391.22;;;8.49;66.00
21821;BME280;11073;48.586;12.066;2023-02-20T01:23:54;97385.41;;;8.52;66.06
21821;BME280;11073;48.586;12.066;2023-02-20T01:26:45;97378.78;;;8.48;65.88
21821;BME280;11073;48.586;12.066;2023-02-20T01:29:35;97374.22;;;8.48;65.93
21821;BME280;11073;48.586;12.066;2023-02-20T01:32:25;97390.19;;;8.50;66.09
21821;BME280;11073;48.586;12.066;2023-02-20T01:35:14;97388.53;;;8.49;66.02
21821;BME280;11073;48.586;12.066;2023-02-20T01:38:04;97372.72;;;8.46;66.06
21821;BME280;11073;48.586;12.066;2023-02-20T01:40:53;97380.84;;;8.52;65.88
21821;BME280;11073;48.586;12.066;2023-02-20T01:43:42;97377.09;;;8.47;66.05
21821;BME280;11073;48.586;12.066;2023-02-20T01:46:47;97378.13;;;8.46;66.04
21821;BME280;11073;48.586;12.066;2023-02-20T01:49:41;97377.09;;;8.47;66.13
21821;BME280;11073;48.586;12.066;2023-02-20T01:52:34;97370.44;;;8.43;66.41
21821;BME280;11073;48.586;12.066;2023-02-20T01:55:27;97377.94;;;8.47;66.30
21821;BME280;11073;48.586;12.066;2023-02-20T01:58:20;97371.50;;;8.48;66.07
21821;BME280;11073;48.586;12.066;2023-02-20T02:01:11;97366.72;;;8.50;66.13
21821;BME280;11073;48.586;12.066;2023-02-20T02:04:02;97363.41;;;8.48;66.11
21821;BME280;11073;48.586;12.066;2023-02-20T02:06:54;97372.09;;;8.44;66.03
21821;BME280;11073;48.586;12.066;2023-02-20T02:09:48;97381.88;;;8.45;66.10
21821;BME280;11073;48.586;12.066;2023-02-20T02:12:39;97379.34;;;8.37;66.11
21821;BME280;11073;48.586;12.066;2023-02-20T02:15:31;97381.25;;;8.43;66.26
21821;BME280;11073;48.586;12.066;2023-02-20T02:18:30;97385.19;;;8.47;66.35
21821;BME280;11073;48.586;12.066;2023-02-20T02:25:12;97380.66;;;8.47;66.26
21821;BME280;11073;48.586;12.066;2023-02-20T02:28:42;97368.38;;;8.45;66.04
21821;BME280;11073;48.586;12.066;2023-02-20T02:32:05;97375.00;;;8.42;66.31
21821;BME280;11073;48.586;12.066;2023-02-20T02:35:20;97376.06;;;8.41;66.15
21821;BME280;11073;48.586;12.066;2023-02-20T02:38:17;97360.47;;;8.43;66.32
21821;BME280;11073;48.586;12.066;2023-02-20T02:41:17;97371.88;;;8.39;66.17
21821;BME280;11073;48.586;12.066;2023-02-20T02:44:12;97361.28;;;8.37;66.25
21821;BME280;11073;48.586;12.066;2023-02-20T02:47:06;97365.25;;;8.41;66.13
21821;BME280;11073;48.586;12.066;2023-02-20T02:50:01;97360.47;;;8.43;66.30
21821;BME280;11073;48.586;12.066;2023-02-20T02:52:52;97365.66;;;8.45;66.11
21821;BME280;11073;48.586;12.066;2023-02-20T02:55:44;97366.28;;;8.47;66.17
21821;BME280;11073;48.586;12.066;2023-02-20T02:58:34;97352.19;;;8.45;66.00
21821;BME280;11073;48.586;12.066;2023-02-20T03:01:23;97354.47;;;8.41;66.01
21821;BME280;11073;48.586;12.066;2023-02-20T03:04:14;97354.22;;;8.36;65.88
21821;BME280;11073;48.586;12.066;2023-02-20T03:07:13;97366.47;;;8.39;66.05
21821;BME280;11073;48.586;12.066;2023-02-20T03:10:06;97363.78;;;8.39;65.92
21821;BME280;11073;48.586;12.066;2023-02-20T03:13:02;97351.13;;;8.39;66.11
21821;BME280;11073;48.586;12.066;2023-02-20T03:15:54;97358.38;;;8.39;66.07
21821;BME280;11073;48.586;12.066;2023-02-20T03:18:44;97348.63;;;8.38;66.07
21821;BME280;11073;48.586;12.066;2023-02-20T03:21:36;97347.19;;;8.35;65.82
21821;BME280;11073;48.586;12.066;2023-02-20T03:24:28;97342.59;;;8.36;66.08
21821;BME280;11073;48.586;12.066;2023-02-20T03:27:22;97349.41;;;8.32;65.84
21821;BME280;11073;48.586;12.066;2023-02-20T03:30:19;97347.13;;;8.28;65.86
21821;BME280;11073;48.586;12.066;2023-02-20T03:33:11;97342.53;;;8.22;66.05
21821;BME280;11073;48.586;12.066;2023-02-20T03:36:23;97351.06;;;8.26;66.20
21821;BME280;11073;48.586;12.066;2023-02-20T03:39:35;97353.94;;;8.24;66.24
21821;BME280;11073;48.586;12.066;2023-02-20T03:42:47;97364.09;;;8.22;66.16
21821;BME280;11073;48.586;12.066;2023-02-20T03:46:01;97354.56;;;8.20;66.25
21821;BME280;11073;48.586;12.066;2023-02-20T03:48:53;97360.56;;;8.15;66.28
21821;BME280;11073;48.586;12.066;2023-02-20T03:51:46;97349.16;;;8.20;66.34
21821;BME280;11073;48.586;12.066;2023-02-20T03:54:47;97358.09;;;8.20;66.41
21821;BME280;11073;48.586;12.066;2023-02-20T03:57:43;97345.41;;;8.14;66.47
21821;BME280;11073;48.586;12.066;2023-02-20T04:00:37;97361.41;;;8.22;66.48
21821;BME280;11073;48.586;12.066;2023-02-20T04:03:35;97359.34;;;8.24;66.32
21821;BME280;11073;48.586;12.066;2023-02-20T04:06:29;97363.06;;;8.23;66.36
21821;BME280;11073;48.586;12.066;2023-02-20T04:09:24;97361.81;;;8.19;66.46
21821;BME280;11073;48.586;12.066;2023-02-20T04:12:20;97356.41;;;8.13;66.33
21821;BME280;11073;48.586;12.066;2023-02-20T04:15:11;97370.75;;;8.20;66.69
21821;BME280;11073;48.586;12.066;2023-02-20T04:18:04;97368.22;;;8.12;66.57
21821;BME280;11073;48.586;12.066;2023-02-20T04:20:58;97377.16;;;8.12;66.79
21821;BME280;11073;48.586;12.066;2023-02-20T04:24:01;97371.09;;;8.10;66.81
21821;BME280;11073;48.586;12.066;2023-02-20T04:26:53;97375.25;;;8.06;66.74
21821;BME280;11073;48.586;12.066;2023-02-20T04:29:43;97365.66;;;8.03;66.71
21821;BME280;11073;48.586;12.066;2023-02-20T04:32:33;97365.66;;;8.03;66.87
21821;BME280;11073;48.586;12.066;2023-02-20T04:35:22;97341.53;;;7.89;66.92
21821;BME280;11073;48.586;12.066;2023-02-20T04:38:14;97360.84;;;7.92;66.88
21821;BME280;11073;48.586;12.066;2023-02-20T04:41:04;97371.03;;;7.90;67.06
21821;BME280;11073;48.586;12.066;2023-02-20T04:43:54;97372.88;;;7.90;67.16
21821;BME280;11073;48.586;12.066;2023-02-20T04:47:09;97379.91;;;7.84;67.17
21821;BME280;11073;48.586;12.066;2023-02-20T04:50:00;97376.75;;;7.81;67.20
21821;BME280;11073;48.586;12.066;2023-02-20T04:52:50;97373.00;;;7.75;67.22
21821;BME280;11073;48.586;12.066;2023-02-20T04:55:41;97381.97;;;7.82;67.19
21821;BME280;11073;48.586;12.066;2023-02-20T04:58:34;97376.94;;;7.79;67.24
21821;BME280;11073;48.586;12.066;2023-02-20T05:01:33;97354.28;;;7.67;67.54
21821;BME280;11073;48.586;12.066;2023-02-20T05:04:22;97372.59;;;7.78;67.21
21821;BME280;11073;48.586;12.066;2023-02-20T05:07:11;97372.81;;;7.77;67.54
21821;BME280;11073;48.586;12.066;2023-02-20T05:10:00;97372.34;;;7.73;67.54
21821;BME280;11073;48.586;12.066;2023-02-20T05:12:51;97385.19;;;7.71;67.46
21821;BME280;11073;48.586;12.066;2023-02-20T05:15:41;97374.81;;;7.68;67.48
21821;BME280;11073;48.586;12.066;2023-02-20T05:18:30;97373.97;;;7.67;67.65
21821;BME280;11073;48.586;12.066;2023-02-20T05:21:19;97372.72;;;7.63;67.54
21821;BME280;11073;48.586;12.066;2023-02-20T05:24:26;97376.88;;;7.66;67.62
21821;BME280;11073;48.586;12.066;2023-02-20T05:27:17;97381.63;;;7.64;67.84
21821;BME280;11073;48.586;12.066;2023-02-20T05:30:09;97377.06;;;7.64;67.84
21821;BME280;11073;48.586;12.066;2023-02-20T05:32:58;97373.13;;;7.67;67.87
21821;BME280;11073;48.586;12.066;2023-02-20T05:35:47;97373.75;;;7.62;67.97
21821;BME280;11073;48.586;12.066;2023-02-20T05:38:36;97374.13;;;7.59;67.79
21821;BME280;11073;48.586;12.066;2023-02-20T05:41:25;97378.47;;;7.60;67.99
21821;BME280;11073;48.586;12.066;2023-02-20T05:44:14;97390.53;;;7.64;67.95
21821;BME280;11073;48.586;12.066;2023-02-20T05:47:05;97397.81;;;7.64;68.04
21821;BME280;11073;48.586;12.066;2023-02-20T05:49:54;97404.81;;;7.58;67.93
21821;BME280;11073;48.586;12.066;2023-02-20T05:52:44;97399.00;;;7.55;68.21
21821;BME280;11073;48.586;12.066;2023-02-20T05:55:33;97404.81;;;7.58;67.88
21821;BME280;11073;48.586;12.066;2023-02-20T05:58:22;97405.00;;;7.57;67.93
21821;BME280;11073;48.586;12.066;2023-02-20T06:01:16;97403.16;;;7.57;68.19
21821;BME280;11073;48.586;12.066;2023-02-20T06:04:08;97382.56;;;7.50;68.02
21821;BME280;11073;48.586;12.066;2023-02-20T06:06:57;97395.88;;;7.58;67.99
21821;BME280;11073;48.586;12.066;2023-02-20T06:09:46;97393.00;;;7.59;68.27
21821;BME280;11073;48.586;12.066;2023-02-20T06:12:36;97399.41;;;7.58;67.96
21821;BME280;11073;48.586;12.066;2023-02-20T06:15:25;97408.94;;;7.54;67.90
21821;BME280;11073;48.586;12.066;2023-02-20T06:18:13;97408.09;;;7.54;68.05
21821;BME280;11073;48.586;12.066;2023-02-20T06:21:06;97406.03;;;7.56;68.15
21821;BME280;11073;48.586;12.066;2023-02-20T06:23:54;97414.13;;;7.56;68.07
21821;BME280;11073;48.586;12.066;2023-02-20T06:26:44;97390.59;;;7.43;68.15
21821;BME280;11073;48.586;12.066;2023-02-20T06:29:33;97415.16;;;7.55;67.87
21821;BME280;11073;48.586;12.066;2023-02-20T06:32:23;97415.78;;;7.57;68.05
21821;BME280;11073;48.586;12.066;2023-02-20T06:35:12;97426.38;;;7.58;67.87
21821;BME280;11073;48.586;12.066;2023-02-20T06:38:02;97418.53;;;7.63;67.95
21821;BME280;11073;48.586;12.066;2023-02-20T06:40:52;97419.56;;;7.62;67.79
21821;BME280;11073;48.586;12.066;2023-02-20T06:43:41;97433.88;;;7.63;67.80
21821;BME280;11073;48.586;12.066;2023-02-20T06:46:30;97435.75;;;7.62;67.75
21821;BME280;11073;48.586;12.066;2023-02-20T06:49:19;97435.97;;;7.67;67.75
21821;BME280;11073;48.586;12.066;2023-02-20T06:52:08;97435.59;;;7.70;67.71
21821;BME280;11073;48.586;12.066;2023-02-20T06:54:59;97447.59;;;7.68;67.63
21821;BME280;11073;48.586;12.066;2023-02-20T06:57:48;97448.03;;;7.71;67.59
21821;BME280;11073;48.586;12.066;2023-02-20T07:00:38;97455.09;;;7.72;67.58
21821;BME280;11073;48.586;12.066;2023-02-20T07:03:27;97448.03;;;7.71;67.60
21821;BME280;11073;48.586;12.066;2023-02-20T07:06:17;97451.56;;;7.72;67.46
21821;BME280;11073;48.586;12.066;2023-02-20T07:09:06;97446.56;;;7.69;67.59
21821;BME280;11073;48.586;12.066;2023-02-20T07:11:57;97450.53;;;7.73;67.57
21821;BME280;11073;48.586;12.066;2023-02-20T07:14:46;97456.13;;;7.71;67.58
21821;BME280;11073;48.586;12.066;2023-02-20T07:17:35;97454.31;;;7.79;67.34
21821;BME280;11073;48.586;12.066;2023-02-20T07:20:24;97465.72;;;7.81;67.31
21821;BME280;11073;48.586;12.066;2023-02-20T07:23:14;97457.88;;;7.86;67.33
21821;BME280;11073;48.586;12.066;2023-02-20T07:26:03;97454.09;;;7.80;67.31
21821;BME280;11073;48.586;12.066;2023-02-20T07:28:54;97454.94;;;7.81;67.03
21821;BME280;11073;48.586;12.066;2023-02-20T07:31:45;97429.47;;;7.83;66.99
21821;BME280;11073;48.586;12.066;2023-02-20T07:34:34;97422.00;;;7.85;67.04
21821;BME280;11073;48.586;12.066;2023-02-20T07:37:23;97423.72;;;7.93;66.98
21821;BME280;11073;48.586;12.066;2023-02-20T07:40:12;97421.41;;;7.90;66.96
21821;BME280;11073;48.586;12.066;2023-02-20T07:43:02;97423.28;;;7.96;66.64
21821;BME280;11073;48.586;12.066;2023-02-20T07:45:58;97422.03;;;7.92;66.59
21821;BME280;11073;48.586;12.066;2023-02-20T07:48:47;97433.72;;;7.99;66.55
21821;BME280;11073;48.586;12.066;2023-02-20T07:51:36;97440.34;;;8.03;66.52
21821;BME280;11073;48.586;12.066;2023-02-20T07:54:26;97442.47;;;8.08;66.35
21821;BME280;11073;48.586;12.066;2023-02-20T07:57:16;97430.44;;;8.10;66.31
21821;BME280;11073;48.586;12.066;2023-02-20T08:00:06;97430.84;;;8.07;66.00
21821;BME280;11073;48.586;12.066;2023-02-20T08:03:00;97437.31;;;8.13;65.89
21821;BME280;11073;48.586;12.066;2023-02-20T08:05:49;97429.22;;;8.13;65.95
21821;BME280;11073;48.586;12.066;2023-02-20T08:08:38;97418.47;;;8.19;65.87
21821;BME280;11073;48.586;12.066;2023-02-20T08:11:32;97424.72;;;8.26;65.82
21821;BME280;11073;48.586;12.066;2023-02-20T08:14:22;97422.44;;;8.30;65.35
21821;BME280;11073;48.586;12.066;2023-02-20T08:17:11;97420.28;;;8.40;65.53
21821;BME280;11073;48.586;12.066;2023-02-20T08:20:01;97408.84;;;8.45;65.08
21821;BME280;11073;48.586;12.066;2023-02-20T08:22:50;97406.13;;;8.38;64.95
21821;BME280;11073;48.586;12.066;2023-02-20T08:25:39;97396.56;;;8.36;65.01
21821;BME280;11073;48.586;12.066;2023-02-20T08:28:27;97400.13;;;8.43;64.52
21821;BME280;11073;48.586;12.066;2023-02-20T08:31:17;97406.97;;;8.45;64.56
21821;BME280;11073;48.586;12.066;2023-02-20T08:34:18;97406.19;;;8.51;64.53
21821;BME280;11073;48.586;12.066;2023-02-20T08:37:09;97404.78;;;8.62;64.25
21821;BME280;11073;48.586;12.066;2023-02-20T08:39:58;97396.28;;;8.72;64.14
21821;BME280;11073;48.586;12.066;2023-02-20T08:42:48;97388.81;;;8.80;63.95
21821;BME280;11073;48.586;12.066;2023-02-20T08:45:38;97383.03;;;8.97;63.66
21821;BME280;11073;48.586;12.066;2023-02-20T08:48:27;97389.28;;;9.04;63.55
21821;BME280;11073;48.586;12.066;2023-02-20T08:51:17;97391.78;;;9.05;63.44
21821;BME280;11073;48.586;12.066;2023-02-20T08:54:09;97399.47;;;9.15;63.19
21821;BME280;11073;48.586;12.066;2023-02-20T08:56:59;97395.53;;;9.24;62.87
21821;BME280;11073;48.586;12.066;2023-02-20T08:59:48;97382.44;;;9.21;62.38
21821;BME280;11073;48.586;12.066;2023-02-20T09:02:37;97386.38;;;9.12;62.30
21821;BME280;11073;48.586;12.066;2023-02-20T09:05:26;97388.88;;;9.07;61.98
21821;BME280;11073;48.586;12.066;2023-02-20T09:08:15;97375.78;;;9.30;61.69
21821;BME280;11073;48.586;12.066;2023-02-20T09:11:06;97382.84;;;9.64;61.47
21821;BME280;11073;48.586;12.066;2023-02-20T09:13:58;97368.88;;;9.87;60.79
21821;BME280;11073;48.586;12.066;2023-02-20T09:16:50;97366.50;;;10.17;60.58
21821;BME280;11073;48.586;12.066;2023-02-20T09:19:39;97356.28;;;10.26;59.59
21821;BME280;11073;48.586;12.066;2023-02-20T09:22:28;97346.25;;;10.40;59.42
21821;BME280;11073;48.586;12.066;2023-02-20T09:25:18;97351.59;;;10.53;58.65
21821;BME280;11073;48.586;12.066;2023-02-20T09:28:08;97346.03;;;10.80;58.56
21821;BME280;11073;48.586;12.066;2023-02-20T09:30:57;97340.09;;;10.96;58.01
21821;BME280;11073;48.586;12.066;2023-02-20T09:33:48;97366.59;;;11.19;57.63
21821;BME280;11073;48.586;12.066;2023-02-20T09:36:38;97362.28;;;11.11;56.94
21821;BME280;11073;48.586;12.066;2023-02-20T09:39:27;97341.78;;;10.90;56.31
21821;BME280;11073;48.586;12.066;2023-02-20T09:42:25;97338.22;;;10.96;55.89
21821;BME280;11073;48.586;12.066;2023-02-20T09:45:21;97334.41;;;11.29;55.65
21821;BME280;11073;48.586;12.066;2023-02-20T09:48:25;97345.88;;;11.31;54.85
21821;BME280;11073;48.586;12.066;2023-02-20T09:51:18;97337.28;;;11.34;54.63
21821;BME280;11073;48.586;12.066;2023-02-20T09:54:12;97337.94;;;11.54;54.00
21821;BME280;11073;48.586;12.066;2023-02-20T09:57:08;97339.66;;;11.49;53.61
21821;BME280;11073;48.586;12.066;2023-02-20T10:00:02;97340.44;;;11.31;53.30
21821;BME280;11073;48.586;12.066;2023-02-20T10:03:04;97328.19;;;11.22;53.04
21821;BME280;11073;48.586;12.066;2023-02-20T10:05:56;97320.41;;;11.07;52.98
21821;BME280;11073;48.586;12.066;2023-02-20T10:08:47;97323.16;;;11.00;52.82
21821;BME280;11073;48.586;12.066;2023-02-20T10:11:59;97336.94;;;10.99;52.70
21821;BME280;11073;48.586;12.066;2023-02-20T10:15:11;97324.88;;;10.95;52.83
21821;BME280;11073;48.586;12.066;2023-02-20T10:18:16;97324.97;;;11.38;52.87
21821;BME280;11073;48.586;12.066;2023-02-20T10:21:15;97311.53;;;11.68;52.27
21821;BME280;11073;48.586;12.066;2023-02-20T10:24:17;97305.91;;;12.06;52.25
21821;BME280;11073;48.586;12.066;2023-02-20T10:27:17;97314.97;;;12.19;51.73
21821;BME280;11073;48.586;12.066;2023-02-20T10:30:10;97292.38;;;12.36;51.02
21821;BME280;11073;48.586;12.066;2023-02-20T10:33:03;97296.25;;;12.59;50.52
21821;BME280;11073;48.586;12.066;2023-02-20T10:36:03;97284.44;;;12.65;50.10
21821;BME280;11073;48.586;12.066;2023-02-20T10:38:59;97284.66;;;12.93;49.79
21821;BME280;11073;48.586;12.066;2023-02-20T10:41:53;97290.38;;;13.04;49.33
21821;BME280;11073;48.586;12.066;2023-02-20T10:44:46;97285.81;;;13.28;48.75
21821;BME280;11073;48.586;12.066;2023-02-20T10:47:43;97286.28;;;13.60;48.79
21821;BME280;11073;48.586;12.066;2023-02-20T10:50:39;97289.84;;;13.72;48.15
21821;BME280;11073;48.586;12.066;2023-02-20T10:53:35;97271.00;;;13.82;47.85
21821;BME280;11073;48.586;12.066;2023-02-20T10:56:32;97265.06;;;13.97;47.47
21821;BME280;11073;48.586;12.066;2023-02-20T10:59:27;97263.94;;;14.21;47.21
21821;BME280;11073;48.586;12.066;2023-02-20T11:02:22;97275.81;;;14.44;46.89
21821;BME280;11073;48.586;12.066;2023-02-20T11:05:17;97268.59;;;14.49;46.42
21821;BME280;11073;48.586;12.066;2023-02-20T11:08:07;97268.47;;;14.56;46.16
21821;BME280;11073;48.586;12.066;2023-02-20T11:11:01;97272.88;;;14.74;45.78
21821;BME280;11073;48.586;12.066;2023-02-20T11:13:57;97251.38;;;14.77;45.31
21821;BME280;11073;48.586;12.066;2023-02-20T11:16:50;97244.81;;;14.90;44.79
21821;BME280;11073;48.586;12.066;2023-02-20T11:19:42;97228.38;;;15.02;44.62
21821;BME280;11073;48.586;12.066;2023-02-20T11:22:39;97225.38;;;15.20;44.01
21821;BME280;11073;48.586;12.066;2023-02-20T11:25:31;97215.22;;;15.15;43.58
21821;BME280;11073;48.586;12.066;2023-02-20T11:28:25;97217.84;;;15.27;43.30
21821;BME280;11073;48.586;12.066;2023-02-20T11:31:14;97229.72;;;15.55;43.18
21821;BME280;11073;48.586;12.066;2023-02-20T11:34:04;97221.03;;;15.75;42.66
21821;BME280;11073;48.586;12.066;2023-02-20T11:37:03;97211.13;;;15.52;42.18
21821;BME280;11073;48.586;12.066;2023-02-20T11:39:59;97205.91;;;15.67;42.25
21821;BME280;11073;48.586;12.066;2023-02-20T11:42:49;97189.06;;;15.53;41.77
21821;BME280;11073;48.586;12.066;2023-02-20T11:45:40;97207.47;;;15.80;41.68
21821;BME280;11073;48.586;12.066;2023-02-20T11:48:29;97212.75;;;15.86;41.50
21821;BME280;11073;48.586;12.066;2023-02-20T11:51:30;97190.69;;;15.93;40.97
21821;BME280;11073;48.586;12.066;2023-02-20T11:54:22;97195.09;;;16.21;41.03
21821;BME280;11073;48.586;12.066;2023-02-20T11:57:21;97185.84;;;16.49;40.68
21821;BME280;11073;48.586;12.066;2023-02-20T12:00:14;97198.53;;;16.87;40.43
21821;BME280;11073;48.586;12.066;2023-02-20T12:03:12;97186.38;;;17.05;39.82
21821;BME280;11073;48.586;12.066;2023-02-20T12:06:34;97175.69;;;17.03;39.50
21821;BME280;11073;48.586;12.066;2023-02-20T12:09:27;97203.59;;;17.05;39.45
21821;BME280;11073;48.586;12.066;2023-02-20T12:12:17;97175.13;;;17.01;39.00
21821;BME280;11073;48.586;12.066;2023-02-20T12:15:12;97171.22;;;17.29;38.76
21821;BME280;11073;48.586;12.066;2023-02-20T12:18:17;97160.19;;;17.61;38.61
21821;BME280;11073;48.586;12.066;2023-02-20T12:21:26;97161.66;;;17.79;38.28
21821;BME280;11073;48.586;12.066;2023-02-20T12:24:33;97154.91;;;18.02;37.96
21821;BME280;11073;48.586;12.066;2023-02-20T12:27:36;97147.59;;;18.18;37.69
21821;BME280;11073;48.586;12.066;2023-02-20T12:30:37;97147.06;;;18.26;37.21
21821;BME280;11073;48.586;12.066;2023-02-20T12:34:08;97151.13;;;18.24;36.26
21821;BME280;11073;48.586;12.066;2023-02-20T12:37:08;97144.72;;;17.87;36.70
21821;BME280;11073;48.586;12.066;2023-02-20T12:43:20;97132.03;;;18.54;36.35
21821;BME280;11073;48.586;12.066;2023-02-20T12:46:16;97128.75;;;18.67;35.77
21821;BME280;11073;48.586;12.066;2023-02-20T12:49:20;97123.25;;;18.57;35.63
21821;BME280;11073;48.586;12.066;2023-02-20T12:52:27;97091.97;;;18.28;35.22
21821;BME280;11073;48.586;12.066;2023-02-20T12:55:23;97131.78;;;18.66;35.29
21821;BME280;11073;48.586;12.066;2023-02-20T12:58:22;97091.19;;;18.78;34.99
21821;BME280;11073;48.586;12.066;2023-02-20T13:01:18;97103.50;;;19.01;34.70
21821;BME280;11073;48.586;12.066;2023-02-20T13:04:32;97107.34;;;19.10;34.24
21821;BME280;11073;48.586;12.066;2023-02-20T13:07:27;97103.78;;;19.20;34.10
21821;BME280;11073;48.586;12.066;2023-02-20T13:10:21;97094.19;;;18.97;33.41
21821;BME280;11073;48.586;12.066;2023-02-20T13:13:10;97097.47;;;19.04;33.59
21821;BME280;11073;48.586;12.066;2023-02-20T13:16:03;97093.34;;;19.07;33.42
21821;BME280;11073;48.586;12.066;2023-02-20T13:19:00;97096.34;;;19.15;33.14
21821;BME280;11073;48.586;12.066;2023-02-20T13:21:54;97077.44;;;19.04;32.85
21821;BME280;11073;48.586;12.066;2023-02-20T13:24:45;97091.41;;;19.22;32.68
21821;BME280;11073;48.586;12.066;2023-02-20T13:27:34;97067.75;;;19.37;32.70
21821;BME280;11073;48.586;12.066;2023-02-20T13:30:23;97082.53;;;19.56;32.68
21821;BME280;11073;48.586;12.066;2023-02-20T13:33:17;97046.28;;;19.59;32.89
21821;BME280;11073;48.586;12.066;2023-02-20T13:36:36;97070.91;;;19.74;32.57
21821;BME280;11073;48.586;12.066;2023-02-20T13:39:44;97056.72;;;19.57;32.31
21821;BME280;11073;48.586;12.066;2023-02-20T13:42:34;97052.28;;;19.71;32.55
21821;BME280;11073;48.586;12.066;2023-02-20T13:45:40;97059.22;;;19.48;32.51
21821;BME280;11073;48.586;12.066;2023-02-20T13:48:40;97046.28;;;19.59;32.79
21821;BME280;11073;48.586;12.066;2023-02-20T13:51:34;97050.94;;;19.64;32.71
21821;BME280;11073;48.586;12.066;2023-02-20T13:54:27;97051.75;;;19.54;32.35
21821;BME280;11073;48.586;12.066;2023-02-20T13:57:18;97031.16;;;19.56;32.48
21821;BME280;11073;48.586;12.066;2023-02-20T14:00:20;97039.00;;;19.83;32.54
21821;BME280;11073;48.586;12.066;2023-02-20T14:03:13;97040.78;;;20.08;32.59
21821;BME280;11073;48.586;12.066;2023-02-20T14:06:08;97036.75;;;19.96;32.32
21821;BME280;11073;48.586;12.066;2023-02-20T14:09:07;97035.09;;;20.00;32.38
21821;BME280;11073;48.586;12.066;2023-02-20T14:12:06;97037.25;;;20.03;31.89
21821;BME280;11073;48.586;12.066;2023-02-20T14:15:02;97038.28;;;20.12;32.21
21821;BME280;11073;48.586;12.066;2023-02-20T14:17:53;97019.41;;;20.00;31.89
21821;BME280;11073;48.586;12.066;2023-02-20T14:20:42;97014.19;;;19.49;31.36
21821;BME280;11073;48.586;12.066;2023-02-20T14:23:32;97010.34;;;19.45;31.49
21821;BME280;11073;48.586;12.066;2023-02-20T14:26:24;97016.66;;;19.46;31.63
21821;BME280;11073;48.586;12.066;2023-02-20T14:29:23;97004.53;;;19.52;31.45
21821;BME280;11073;48.586;12.066;2023-02-20T14:32:13;97013.53;;;19.73;31.47
21821;BME280;11073;48.586;12.066;2023-02-20T14:35:10;97006.41;;;19.72;31.34
21821;BME280;11073;48.586;12.066;2023-02-20T14:38:12;96999.34;;;19.50;31.34
21821;BME280;11073;48.586;12.066;2023-02-20T14:41:10;96988.69;;;19.39;31.32
21821;BME280;11073;48.586;12.066;2023-02-20T14:44:02;96996.63;;;19.40;31.19
21821;BME280;11073;48.586;12.066;2023-02-20T14:46:54;96999.97;;;19.32;31.48
21821;BME280;11073;48.586;12.066;2023-02-20T14:49:45;96992.38;;;19.14;31.66
21821;BME280;11073;48.586;12.066;2023-02-20T14:52:34;96983.38;;;18.93;31.20
21821;BME280;11073;48.586;12.066;2023-02-20T14:55:24;96972.69;;;18.81;31.58
21821;BME280;11073;48.586;12.066;2023-02-20T14:58:14;96976.00;;;18.68;31.61
21821;BME280;11073;48.586;12.066;2023-02-20T15:01:13;96973.81;;;18.75;32.18
21821;BME280;11073;48.586;12.066;2023-02-20T15:04:09;96972.13;;;18.89;32.27
21821;BME280;11073;48.586;12.066;2023-02-20T15:07:04;96970.16;;;19.05;31.89
21821;BME280;11073;48.586;12.066;2023-02-20T15:09:57;96968.25;;;19.06;32.05
21821;BME280;11073;48.586;12.066;2023-02-20T15:12:55;96961.84;;;19.25;31.88
21821;BME280;11073;48.586;12.066;2023-02-20T15:15:49;96958.19;;;19.40;32.36
21821;BME280;11073;48.586;12.066;2023-02-20T15:18:43;96956.19;;;19.61;32.29
21821;BME280;11073;48.586;12.066;2023-02-20T15:21:37;96957.66;;;19.93;32.38